Aérodrome :
LOGIN :

S'inscrire | Disclaimer

   EN    FR    IT 

 










Légende :    VFR   VFR Marginal   IFR   IFR Intensif   IFR Très Intensif
Visi : 
Plafond : 
>= 8 km
>= 3000ft
5 à 8 km
1000 à 3000 ft
1500m à 5 km
500 à 1000 ft
800 à 1500m
200 à 500 ft
< 800m
< 200 ft
Symboles :   Orages  Brouillard  Fortes neiges  Fortes précipitations  Vent > 20 kt
SIGMETs :   Divers  Orages  Givrage  Turbulence  Onde Orograph.  Cendres Volcan.






- Altitude de l'aérodrome : 1213 ft
- Code IATA : SCQ


LEST - Santiago de Compostela

DERNIER METAR :
  • 011330Z 10004KT 030V160 CAVOK 15/07 Q1024 NOSIG

METARs EXPIRÉS :
  • 011300Z 07006KT 030V110 CAVOK 14/07 Q1025 NOSIG
  • 011230Z 07007KT 050V110 CAVOK 13/07 Q1025 NOSIG
  • 011200Z 07005KT 020V110 CAVOK 13/07 Q1025 NOSIG
  • 011130Z 09007KT 060V120 CAVOK 13/07 Q1025 NOSIG
  • 011100Z 10006KT 080V140 CAVOK 12/06 Q1026 NOSIG

TAF TAF LEST
Valide du 01 à 12h jusqu'au 02 à 12h UTC


011100Z 0112/0212 04007KT 9999 FEW040 TX15/0115Z TN03/0207Z
TEMPO 0200/0209 1500 BCFG
PROB30
TEMPO 0201/0209 0350 FG VV001



MET'MAP, la Météo Aéronautique d'un coup d'oeil ! - Copyright ORBIFLY Décembre 2007 - Disclaimer

ORBIFLY MET'MAP TEAM :

Programmation & Développement : Alexandra Zaïnal
Sur une idée originale de : Baudouin d'Aumeries
Assistance à la programmation : Marc-Olivier Méhu
Soutien technique & logistique : Manuel Goepfert

Contact : metmap@orbifly.com




SOURCES & CREDITS :

   NOAA